createdAt,value
2019-02-14T00:01:22.675Z,11.50
2019-02-14T00:04:02.537Z,10.08
2019-02-14T00:06:42.908Z,7.22
2019-02-14T00:09:22.875Z,10.50
2019-02-14T00:12:02.808Z,8.33
2019-02-14T00:14:42.899Z,6.58
2019-02-14T00:17:23.162Z,7.65
2019-02-14T00:20:03.394Z,7.33
2019-02-14T00:22:43.325Z,8.00
2019-02-14T00:25:23.774Z,6.62
2019-02-14T00:28:03.886Z,7.90
2019-02-14T00:30:43.982Z,8.68
2019-02-14T00:33:23.932Z,5.85
2019-02-14T00:36:04.341Z,6.90
2019-02-14T00:38:44.374Z,8.05
2019-02-14T00:41:24.097Z,6.95
2019-02-14T00:44:04.210Z,12.75
2019-02-14T00:46:44.217Z,7.30
2019-02-14T00:49:24.485Z,18.98
2019-02-14T00:52:03.962Z,11.12
2019-02-14T00:54:44.323Z,9.55
2019-02-14T00:57:24.021Z,9.53
2019-02-14T01:00:05.982Z,9.63
2019-02-14T01:02:47.490Z,7.97
2019-02-14T01:05:33.455Z,7.97
2019-02-14T01:08:08.813Z,8.95
2019-02-14T01:10:49.066Z,9.08
2019-02-14T01:13:29.026Z,13.25
2019-02-14T01:16:09.145Z,9.20
2019-02-14T01:18:49.978Z,7.78
2019-02-14T01:21:30.087Z,10.90
2019-02-14T01:24:10.244Z,9.45
2019-02-14T01:26:50.387Z,7.67
2019-02-14T01:29:30.253Z,8.63
2019-02-14T01:32:10.575Z,8.98
2019-02-14T01:34:50.394Z,10.18
2019-02-14T01:37:30.522Z,9.00
2019-02-14T01:40:10.181Z,8.90
2019-02-14T01:42:50.399Z,14.35
2019-02-14T01:45:30.594Z,8.45
2019-02-14T01:48:10.327Z,10.68
2019-02-14T01:50:50.610Z,7.45
2019-02-14T01:53:30.424Z,7.58
2019-02-14T01:56:10.712Z,7.17
2019-02-14T01:58:50.690Z,9.33
2019-02-14T02:01:30.726Z,11.63
2019-02-14T02:04:11.132Z,7.33
2019-02-14T02:06:51.055Z,8.00
2019-02-14T02:09:30.754Z,7.28
2019-02-14T02:12:10.784Z,11.10
2019-02-14T02:14:50.910Z,8.38
2019-02-14T02:17:30.960Z,9.25
2019-02-14T02:20:10.738Z,10.20
2019-02-14T02:22:51.664Z,10.53
2019-02-14T02:25:32.811Z,8.68
2019-02-14T02:28:12.777Z,9.43
2019-02-14T02:33:33.112Z,7.95
2019-02-14T02:36:13.207Z,7.40
2019-02-14T02:38:53.311Z,9.88
2019-02-14T02:41:33.433Z,10.65
2019-02-14T02:44:13.602Z,11.50
2019-02-14T02:46:53.716Z,8.53
2019-02-14T02:49:31.828Z,8.58
2019-02-14T02:52:18.513Z,8.68
2019-02-14T02:54:58.152Z,7.97
2019-02-14T02:57:38.345Z,7.28
2019-02-14T03:00:18.642Z,11.78
2019-02-14T03:02:58.854Z,11.57
2019-02-14T03:05:38.451Z,9.40
2019-02-14T03:08:19.116Z,8.30
2019-02-14T03:11:00.078Z,7.42
2019-02-14T03:13:40.157Z,7.53
2019-02-14T03:16:19.944Z,8.75
2019-02-14T03:18:59.515Z,8.83
2019-02-14T03:21:39.620Z,7.92
2019-02-14T03:24:19.257Z,10.50
2019-02-14T03:27:00.487Z,9.60
2019-02-14T03:29:40.776Z,5.17
2019-02-14T03:32:21.005Z,15.88
2019-02-14T03:35:01.096Z,6.75
2019-02-14T03:37:41.195Z,6.72
2019-02-14T03:40:21.569Z,9.25
2019-02-14T03:43:01.130Z,5.95
2019-02-14T03:45:41.244Z,5.87
2019-02-14T03:48:20.909Z,7.45
2019-02-14T03:51:01.156Z,9.30
2019-02-14T03:53:41.055Z,9.53
2019-02-14T03:56:20.975Z,9.58
2019-02-14T03:59:01.205Z,7.17
2019-02-14T04:01:41.065Z,8.28
2019-02-14T04:04:21.136Z,14.50
2019-02-14T04:07:00.801Z,13.20
2019-02-14T04:09:40.685Z,8.78
2019-02-14T04:12:20.652Z,10.45
2019-02-14T04:15:00.646Z,11.33
2019-02-14T04:17:40.876Z,8.95
2019-02-14T04:20:20.908Z,8.55
2019-02-14T04:23:01.175Z,9.35
2019-02-14T04:25:40.763Z,8.23
2019-02-14T04:28:21.014Z,9.60
2019-02-14T04:31:00.744Z,13.20
2019-02-14T04:36:23.636Z,6.50
2019-02-14T04:39:04.280Z,9.50
2019-02-14T04:41:45.015Z,10.13
2019-02-14T04:44:25.176Z,8.83
2019-02-14T04:47:05.163Z,7.05
2019-02-14T04:49:45.084Z,10.63
2019-02-14T04:52:25.280Z,8.75
2019-02-14T04:55:05.394Z,8.70
2019-02-14T04:57:45.663Z,10.85
2019-02-14T05:00:26.030Z,8.60
2019-02-14T05:09:03.844Z,7.40
2019-02-14T05:11:45.348Z,8.75
2019-02-14T05:14:25.327Z,11.40
2019-02-14T05:17:05.016Z,8.18
2019-02-14T05:19:45.123Z,9.48
2019-02-14T05:22:25.194Z,10.23
2019-02-14T05:25:05.661Z,9.28
2019-02-14T05:27:45.886Z,9.95
2019-02-14T05:30:25.662Z,9.20
2019-02-14T05:33:05.126Z,10.53
2019-02-14T05:35:45.489Z,10.53
2019-02-14T05:38:25.497Z,9.23
2019-02-14T05:41:05.545Z,11.50
2019-02-14T05:43:45.482Z,9.58
2019-02-14T05:46:25.695Z,12.05
2019-02-14T05:49:05.773Z,9.40
2019-02-14T05:51:47.140Z,11.75
2019-02-14T05:54:27.503Z,10.40
2019-02-14T05:57:07.269Z,9.75
2019-02-14T05:59:47.190Z,11.12
2019-02-14T06:02:27.386Z,10.03
2019-02-14T06:05:07.496Z,10.85
2019-02-14T06:07:47.867Z,12.33
2019-02-14T06:10:27.728Z,14.85
2019-02-14T06:13:07.884Z,14.90
2019-02-14T06:15:48.123Z,10.63
2019-02-14T06:18:27.834Z,10.80
2019-02-14T06:21:07.465Z,11.33
2019-02-14T06:23:47.368Z,11.60
2019-02-14T06:26:27.897Z,16.62
2019-02-14T06:29:07.452Z,9.60
2019-02-14T06:31:48.085Z,12.78
2019-02-14T06:34:28.346Z,15.10
2019-02-14T06:37:09.710Z,16.50
2019-02-14T06:39:50.247Z,12.75
2019-02-14T06:42:30.562Z,11.65
2019-02-14T06:45:10.397Z,8.38
2019-02-14T06:47:50.768Z,13.13
2019-02-14T06:50:34.805Z,10.45
2019-02-14T06:53:11.748Z,13.38
2019-02-14T06:55:52.301Z,12.70
2019-02-14T06:58:20.138Z,12.90
2019-02-14T07:01:07.259Z,12.10
2019-02-14T07:03:47.733Z,11.43
2019-02-14T07:06:28.002Z,11.38
2019-02-14T07:09:07.963Z,11.35
2019-02-14T07:11:47.888Z,10.53
2019-02-14T07:14:27.940Z,11.70
2019-02-14T07:17:07.850Z,9.73
2019-02-14T07:19:47.910Z,12.25
2019-02-14T07:22:27.935Z,13.30
2019-02-14T07:25:08.514Z,9.15
2019-02-14T07:27:49.900Z,10.20
2019-02-14T07:30:30.053Z,9.48
2019-02-14T07:33:09.837Z,13.93
2019-02-14T07:35:49.781Z,15.48
2019-02-14T07:38:29.813Z,11.18
2019-02-14T07:41:09.668Z,9.80
2019-02-14T07:43:49.523Z,14.83
2019-02-14T07:46:29.525Z,10.18
2019-02-14T07:49:09.435Z,9.95
2019-02-14T07:51:49.683Z,9.93
2019-02-14T07:54:33.053Z,10.50
2019-02-14T07:57:13.617Z,14.05
2019-02-14T07:59:53.539Z,9.43
2019-02-14T08:02:33.645Z,13.68
2019-02-14T08:05:13.326Z,10.48
2019-02-14T08:07:53.428Z,9.93
2019-02-14T08:10:33.551Z,11.43
2019-02-14T08:13:13.563Z,10.63
2019-02-14T08:15:53.611Z,10.25
2019-02-14T08:18:33.854Z,12.35
2019-02-14T08:21:14.333Z,12.80
2019-02-14T08:23:53.914Z,15.55
2019-02-14T08:26:33.473Z,12.33
2019-02-14T08:29:15.400Z,11.38
2019-02-14T08:31:55.901Z,14.10
2019-02-14T08:34:36.215Z,10.75
2019-02-14T08:37:16.180Z,11.45
2019-02-14T08:39:56.503Z,10.90
2019-02-14T08:42:36.445Z,13.80
2019-02-14T08:45:16.564Z,11.93
2019-02-14T08:47:56.896Z,10.70
2019-02-14T08:50:37.257Z,9.47
2019-02-14T08:53:17.131Z,12.57
2019-02-14T08:55:57.183Z,11.07
2019-02-14T08:58:37.877Z,12.70
2019-02-14T09:01:16.147Z,10.33
2019-02-14T09:04:02.869Z,10.83
2019-02-14T09:06:44.539Z,11.40
2019-02-14T09:09:24.260Z,10.73
2019-02-14T09:12:04.309Z,11.33
2019-02-14T09:14:44.309Z,12.33
2019-02-14T09:17:24.294Z,10.70
2019-02-14T09:20:04.473Z,11.70
2019-02-14T09:22:44.657Z,12.87
2019-02-14T09:25:25.216Z,10.60
2019-02-14T09:28:05.055Z,11.00
2019-02-14T09:30:45.085Z,12.17
2019-02-14T09:33:25.005Z,13.03
2019-02-14T09:36:05.107Z,11.60
2019-02-14T09:38:45.184Z,11.37
2019-02-14T09:41:25.007Z,10.50
2019-02-14T09:44:04.963Z,11.07
2019-02-14T09:46:45.015Z,9.90
2019-02-14T09:49:24.962Z,15.33
2019-02-14T09:52:04.640Z,12.73
2019-02-14T09:54:44.949Z,27.27
2019-02-14T09:57:24.572Z,14.23
2019-02-14T10:00:04.534Z,14.17
2019-02-14T10:02:44.196Z,26.33
2019-02-14T10:05:24.495Z,16.60
2019-02-14T10:08:12.507Z,17.93
2019-02-14T10:10:46.310Z,14.60
2019-02-14T10:13:26.855Z,12.63
2019-02-14T10:16:06.461Z,13.23
2019-02-14T10:18:46.521Z,13.40
2019-02-14T10:21:26.946Z,15.73
2019-02-14T10:24:08.140Z,15.37
2019-02-14T10:26:48.380Z,12.93
2019-02-14T10:29:28.147Z,14.70
2019-02-14T10:32:07.940Z,17.90
2019-02-14T10:34:48.193Z,12.60
2019-02-14T10:37:28.331Z,13.60
2019-02-14T10:40:08.879Z,13.97
2019-02-14T10:42:48.900Z,14.13
2019-02-14T10:45:28.643Z,15.30
2019-02-14T10:48:08.697Z,12.47
2019-02-14T10:50:48.844Z,14.73
2019-02-14T10:53:28.400Z,14.47
2019-02-14T10:56:08.740Z,16.43
2019-02-14T10:58:48.610Z,16.23
2019-02-14T11:01:29.345Z,14.20
2019-02-14T11:04:08.930Z,15.67
2019-02-14T11:06:50.374Z,18.33
2019-02-14T11:09:30.909Z,15.53
2019-02-14T11:12:11.258Z,16.03
2019-02-14T11:14:50.872Z,16.97
2019-02-14T11:17:31.242Z,17.37
2019-02-14T11:20:11.302Z,16.60
2019-02-14T11:22:51.296Z,16.10
2019-02-14T11:25:31.508Z,16.20
2019-02-14T11:28:11.512Z,16.10
2019-02-14T11:30:51.706Z,15.30
2019-02-14T11:33:31.689Z,17.17
2019-02-14T11:36:11.749Z,17.27
2019-02-14T11:38:51.948Z,16.10
2019-02-14T11:41:33.466Z,17.90
2019-02-14T11:44:02.858Z,17.13
2019-02-14T11:49:56.322Z,17.47
2019-02-14T11:52:36.618Z,27.00
2019-02-14T11:55:17.308Z,17.30
2019-02-14T11:57:56.715Z,17.13
2019-02-14T12:00:36.977Z,15.90
2019-02-14T12:03:16.774Z,17.37
2019-02-14T12:05:56.821Z,18.77
2019-02-14T12:08:37.078Z,31.30
2019-02-14T12:11:16.990Z,30.30
2019-02-14T12:13:45.549Z,19.27
2019-02-14T12:16:24.955Z,17.53
2019-02-14T12:19:05.222Z,17.30
2019-02-14T12:21:45.287Z,19.30
2019-02-14T12:24:25.481Z,17.00
2019-02-14T12:27:05.381Z,19.67
2019-02-14T12:29:45.890Z,16.00
2019-02-14T12:32:25.487Z,17.43
2019-02-14T12:35:05.726Z,18.70
2019-02-14T12:37:45.987Z,19.83
2019-02-14T12:40:26.158Z,18.23
2019-02-14T12:43:06.516Z,17.53
2019-02-14T12:45:46.275Z,18.50
2019-02-14T12:48:26.383Z,17.80
2019-02-14T12:51:06.163Z,16.80
2019-02-14T12:53:46.163Z,18.33
2019-02-14T12:56:26.109Z,18.30
2019-02-14T12:59:05.906Z,17.03
2019-02-14T13:01:46.179Z,18.17
2019-02-14T13:04:26.277Z,18.07
2019-02-14T13:07:06.572Z,19.37
2019-02-14T13:12:26.363Z,17.80
2019-02-14T13:15:06.542Z,18.37
2019-02-14T13:17:46.470Z,24.60
2019-02-14T13:20:27.284Z,18.67
2019-02-14T13:23:06.913Z,18.00
2019-02-14T13:25:47.026Z,17.90
2019-02-14T13:28:26.893Z,17.03
2019-02-14T13:31:07.059Z,17.20
2019-02-14T13:33:34.605Z,17.87
2019-02-14T13:36:22.567Z,16.10
2019-02-14T13:39:04.174Z,17.90
2019-02-14T13:41:44.028Z,16.87
2019-02-14T13:44:30.771Z,17.83
2019-02-14T13:47:10.620Z,16.83
2019-02-14T13:49:53.163Z,16.17
2019-02-14T13:52:32.833Z,17.50
2019-02-14T13:55:13.054Z,18.37
2019-02-14T13:57:52.842Z,16.07
2019-02-14T14:00:32.894Z,17.23
2019-02-14T14:03:13.351Z,17.27
2019-02-14T14:05:54.278Z,17.83
2019-02-14T14:08:33.789Z,17.70
2019-02-14T14:11:15.140Z,17.23
2019-02-14T14:13:55.134Z,18.03
2019-02-14T14:16:35.062Z,17.57
2019-02-14T14:19:15.379Z,16.77
2019-02-14T14:21:55.439Z,16.93
2019-02-14T14:24:35.342Z,15.23
2019-02-14T14:27:16.191Z,15.87
2019-02-14T14:29:56.413Z,14.03
2019-02-14T14:32:36.352Z,14.73
2019-02-14T14:35:19.681Z,12.83
2019-02-14T14:37:59.114Z,13.67
2019-02-14T14:40:39.158Z,13.93
2019-02-14T14:46:47.985Z,15.83
2019-02-14T14:49:27.497Z,16.30
2019-02-14T14:52:07.891Z,15.97
2019-02-14T14:54:47.395Z,13.77
2019-02-14T14:57:27.719Z,16.23
2019-02-14T15:00:07.757Z,16.50
2019-02-14T15:02:47.862Z,15.20
2019-02-14T15:05:28.398Z,16.80
2019-02-14T15:08:08.424Z,15.57
2019-02-14T15:10:48.681Z,17.40
2019-02-14T15:13:28.564Z,16.07
2019-02-14T15:16:08.795Z,15.07
2019-02-14T15:18:48.880Z,15.03
2019-02-14T15:21:28.552Z,14.50
2019-02-14T15:24:08.591Z,15.73
2019-02-14T15:26:48.462Z,17.17
2019-02-14T15:29:28.448Z,16.93
2019-02-14T15:32:08.661Z,13.60
2019-02-14T15:34:48.719Z,16.57
2019-02-14T15:37:28.702Z,13.73
2019-02-14T15:40:09.856Z,16.87
2019-02-14T15:42:50.538Z,17.33
2019-02-14T15:45:30.725Z,16.67
2019-02-14T15:48:10.671Z,15.97
2019-02-14T15:50:54.416Z,14.97
2019-02-14T15:53:35.239Z,15.77
2019-02-14T15:56:15.631Z,17.30
2019-02-14T15:58:57.416Z,17.20
2019-02-14T16:01:37.075Z,17.40
2019-02-14T16:04:17.279Z,20.60
2019-02-14T16:06:57.252Z,16.00
2019-02-14T16:09:38.879Z,14.10
2019-02-14T16:12:19.999Z,14.93
2019-02-14T16:15:01.654Z,14.77
2019-02-14T16:17:43.296Z,16.63
2019-02-14T16:20:23.444Z,17.40
2019-02-14T16:23:04.208Z,15.00
2019-02-14T16:25:45.986Z,16.70
2019-02-14T16:28:25.934Z,16.13
2019-02-14T16:31:06.192Z,15.30
2019-02-14T16:33:46.114Z,17.30
2019-02-14T16:36:26.593Z,14.70
2019-02-14T16:39:06.154Z,16.67
2019-02-14T16:41:48.466Z,14.73
2019-02-14T16:44:28.257Z,14.90
2019-02-14T16:47:08.721Z,13.90
2019-02-14T16:49:36.393Z,16.07
2019-02-14T16:52:23.782Z,11.37
2019-02-14T16:55:03.756Z,15.27
2019-02-14T16:57:43.642Z,16.13
2019-02-14T17:00:23.607Z,43.33
2019-02-14T17:03:04.200Z,40.17
2019-02-14T17:05:44.135Z,34.63
2019-02-14T17:08:23.944Z,23.90
2019-02-14T17:11:04.048Z,31.57
2019-02-14T17:13:44.418Z,18.67
2019-02-14T17:16:24.315Z,15.23
2019-02-14T17:19:04.394Z,17.57
2019-02-14T17:21:44.464Z,14.03
2019-02-14T17:24:24.452Z,19.97
2019-02-14T17:27:04.593Z,17.50
2019-02-14T17:29:44.269Z,18.03
2019-02-14T17:32:24.762Z,19.10
2019-02-14T17:35:04.676Z,26.47
2019-02-14T17:37:44.735Z,21.97
2019-02-14T17:40:24.857Z,20.37
2019-02-14T17:43:05.152Z,27.67
2019-02-14T17:45:44.929Z,25.90
2019-02-14T17:48:26.594Z,15.27
2019-02-14T17:51:06.856Z,17.70
2019-02-14T17:53:47.796Z,12.30
2019-02-14T17:56:27.354Z,13.00
2019-02-14T17:59:08.699Z,14.55
2019-02-14T18:01:36.941Z,21.62
2019-02-14T18:04:17.766Z,14.13
2019-02-14T18:06:57.188Z,14.40
2019-02-14T18:09:38.423Z,19.15
2019-02-14T18:12:18.587Z,19.25
2019-02-14T18:14:58.396Z,16.82
2019-02-14T18:17:38.768Z,14.30
2019-02-14T18:20:18.588Z,14.78
2019-02-14T18:22:58.791Z,13.08
2019-02-14T18:25:38.735Z,15.75
2019-02-14T18:28:18.782Z,16.62
2019-02-14T18:30:59.240Z,19.25
2019-02-14T18:33:39.571Z,20.25
2019-02-14T18:36:19.292Z,20.20
2019-02-14T18:39:00.585Z,17.73
2019-02-14T18:41:41.034Z,22.52
2019-02-14T18:44:21.154Z,11.53
2019-02-14T18:47:01.227Z,12.80
2019-02-14T18:49:41.125Z,17.07
2019-02-14T18:52:20.804Z,10.70
2019-02-14T18:55:00.907Z,13.85
2019-02-14T18:57:40.342Z,15.30
2019-02-14T19:00:20.491Z,12.85
2019-02-14T19:03:00.621Z,12.00
2019-02-14T19:05:40.531Z,12.45
2019-02-14T19:08:20.728Z,15.32
2019-02-14T19:11:01.063Z,10.20
2019-02-14T19:13:40.471Z,9.58
2019-02-14T19:16:20.477Z,13.00
2019-02-14T19:19:00.428Z,10.82
2019-02-14T19:21:40.301Z,12.15
2019-02-14T19:24:20.438Z,13.28
2019-02-14T19:27:00.648Z,13.78
2019-02-14T19:29:40.534Z,10.23
2019-02-14T19:32:20.881Z,15.32
2019-02-14T19:35:01.029Z,13.78
2019-02-14T19:37:41.174Z,10.53
2019-02-14T19:40:21.560Z,11.50
2019-02-14T19:43:02.757Z,11.20
2019-02-14T19:45:42.600Z,11.35
2019-02-14T19:48:23.643Z,11.33
2019-02-14T19:51:04.569Z,11.22
2019-02-14T19:53:44.873Z,15.25
2019-02-14T19:56:25.072Z,13.25
2019-02-14T19:59:06.010Z,10.15
2019-02-14T20:01:45.597Z,15.53
2019-02-14T20:04:26.103Z,10.82
2019-02-14T20:07:05.684Z,11.90
2019-02-14T20:09:45.960Z,10.32
2019-02-14T20:12:26.232Z,14.40
2019-02-14T20:15:06.279Z,14.85
2019-02-14T20:17:46.122Z,13.15
2019-02-14T20:20:26.842Z,15.23
2019-02-14T20:23:07.343Z,14.78
2019-02-14T20:25:47.107Z,9.03
2019-02-14T20:28:27.446Z,12.30
2019-02-14T20:31:07.269Z,15.68
2019-02-14T20:33:47.446Z,13.22
2019-02-14T20:36:28.841Z,13.85
2019-02-14T20:39:08.667Z,11.65
2019-02-14T20:41:49.544Z,13.13
2019-02-14T20:44:29.242Z,13.30
2019-02-14T20:47:09.298Z,9.98
2019-02-14T20:49:49.524Z,9.83
2019-02-14T20:52:29.809Z,10.55
2019-02-14T20:55:10.417Z,9.43
2019-02-14T20:57:50.104Z,10.85
2019-02-14T21:00:35.700Z,10.03
2019-02-14T21:03:17.283Z,9.65
2019-02-14T21:05:56.953Z,9.43
2019-02-14T21:08:37.000Z,10.10
2019-02-14T21:11:17.398Z,14.13
2019-02-14T21:13:57.346Z,11.43
2019-02-14T21:16:37.153Z,11.53
2019-02-14T21:19:17.893Z,12.73
2019-02-14T21:22:01.606Z,10.23
2019-02-14T21:24:39.889Z,10.68
2019-02-14T21:27:20.071Z,9.05
2019-02-14T21:30:00.466Z,10.03
2019-02-14T21:32:40.670Z,11.10
2019-02-14T21:35:20.473Z,10.80
2019-02-14T21:38:00.480Z,11.85
2019-02-14T21:40:40.438Z,11.45
2019-02-14T21:43:20.527Z,9.65
2019-02-14T21:46:00.233Z,14.38
2019-02-14T21:48:40.368Z,11.35
2019-02-14T21:51:20.706Z,10.58
2019-02-14T21:54:00.773Z,9.45
2019-02-14T21:56:40.628Z,10.03
2019-02-14T21:59:21.519Z,18.20
2019-02-14T22:02:05.927Z,10.43
2019-02-14T22:04:33.918Z,11.15
2019-02-14T22:07:21.256Z,10.55
2019-02-14T22:10:01.024Z,10.80
2019-02-14T22:12:42.717Z,10.23
2019-02-14T22:15:23.279Z,10.85
2019-02-14T22:18:03.382Z,12.40
2019-02-14T22:20:43.727Z,14.28
2019-02-14T22:23:23.773Z,10.00
2019-02-14T22:26:03.913Z,12.13
2019-02-14T22:28:43.782Z,11.05
2019-02-14T22:31:23.912Z,10.72
2019-02-14T22:34:04.140Z,12.55
2019-02-14T22:36:44.280Z,15.08
2019-02-14T22:39:24.186Z,10.75
2019-02-14T22:42:04.358Z,13.85
2019-02-14T22:44:44.974Z,11.45
2019-02-14T22:47:25.002Z,16.30
2019-02-14T22:50:04.817Z,10.82
2019-02-14T22:52:44.948Z,11.20
2019-02-14T22:55:24.934Z,10.82
2019-02-14T23:00:44.651Z,10.60
2019-02-14T23:03:32.071Z,10.68
2019-02-14T23:06:12.068Z,10.53
2019-02-14T23:08:52.220Z,12.03
2019-02-14T23:11:32.091Z,11.05
2019-02-14T23:14:12.331Z,8.78
2019-02-14T23:16:52.000Z,10.50
2019-02-14T23:19:32.039Z,10.13
2019-02-14T23:22:11.821Z,13.50
2019-02-14T23:24:51.930Z,13.70
2019-02-14T23:27:33.104Z,12.80
2019-02-14T23:30:14.070Z,11.03
2019-02-14T23:32:53.956Z,14.40
2019-02-14T23:35:33.800Z,12.90
2019-02-14T23:38:13.845Z,11.57
2019-02-14T23:40:53.983Z,12.58
2019-02-14T23:43:34.072Z,13.80
2019-02-14T23:46:14.493Z,10.90
2019-02-14T23:48:54.725Z,12.45
2019-02-14T23:51:34.525Z,12.55
2019-02-14T23:54:14.207Z,13.00
2019-02-14T23:56:54.405Z,14.43
2019-02-14T23:59:34.196Z,13.35
